»·PEaware :: SWA1846 KSAN-KSFO

SWA1846 :: KSAN-KSFO

FLIGHT INFORMATION

Flight Status: Arrived
Operator:
Southwest Airlines
More flights by this operator :: More flights under this callsign
Pilot: Cody B. (17747)
Aircraft: BOEING 737-800
(B738)
More flights by this aircraft type
Origin: KSAN San Diego Intl-Lindbergh
United States
Destination: KSFO San Francisco Intl
United States
More flights between these airports :: More routes between these airports
Route: PADRZ2 IKAYE RIZIN SPLNT STOKD SERFR SERFR3
File this flight plan on PilotEdge
Remarks: PBN / A1B1C1D1S1S2 DOF / 180810 REG / N8301J EET / KZOA0037 CODE / AB5ADE OPR / SWA PER / C RMK / TCAS SIMBRIEF
Altitude:
(Current/Filed)
36,000ft
Speed:
(Current/Filed)
463kts
Departed: 10-Aug-18 12:27 PM
Arrived: 10-Aug-18 01:35 PM
Distance/Time
Traveled:
388nm/1:07
Distance/Time
To Go:
Arrived

Flight Plot

Page will automatically refresh every two minutes.

Flight plan parsing failed; only flown route is shown


Map Options




Map Legend


Flown Route
Filed Route
Departure Airport
Arrival Airport
Navaid (VOR, NDB)
Fix

Horizontal Profiles

Position Reports

Time Latitude Longitude Heading Altitude Ground
Speed
10-Aug-18 11:35 32.732329 -117.195909 306 25ft 0kts
10-Aug-18 11:36 32.732329 -117.195909 306 25ft 0kts
10-Aug-18 11:37 32.732329 -117.195909 306 25ft 0kts
10-Aug-18 11:38 32.732329 -117.195909 306 25ft 0kts
10-Aug-18 11:39 32.732329 -117.195909 306 25ft 0kts
10-Aug-18 11:40 32.732329 -117.195909 306 25ft 0kts
10-Aug-18 11:41 32.732329 -117.195909 306 25ft 0kts
10-Aug-18 11:42 32.732329 -117.195909 306 25ft 0kts
10-Aug-18 11:43 32.732329 -117.195909 306 25ft 0kts
10-Aug-18 11:44 32.732329 -117.195909 306 25ft 0kts
10-Aug-18 11:45 32.732329 -117.195909 306 25ft 0kts
10-Aug-18 11:46 32.732329 -117.195909 306 25ft 0kts
10-Aug-18 11:47 32.732329 -117.195909 306 25ft 0kts
10-Aug-18 11:48 32.732329 -117.195909 306 25ft 0kts
10-Aug-18 11:49 32.732329 -117.195909 306 25ft 0kts
10-Aug-18 11:50 32.732329 -117.195909 306 25ft 0kts
10-Aug-18 11:51 32.732329 -117.195909 306 25ft 0kts
10-Aug-18 11:52 32.732329 -117.195909 306 25ft 0kts
10-Aug-18 11:53 32.732329 -117.195909 306 25ft 0kts
10-Aug-18 11:54 32.732329 -117.195909 306 25ft 0kts
10-Aug-18 11:55 32.732329 -117.195909 306 25ft 0kts
10-Aug-18 11:56 32.732329 -117.195909 306 25ft 0kts
10-Aug-18 11:57 32.732329 -117.195909 306 25ft 0kts
10-Aug-18 11:58 32.732329 -117.195909 306 25ft 0kts
10-Aug-18 11:59 32.732329 -117.195909 306 25ft 0kts
10-Aug-18 12:00 32.732329 -117.195909 306 25ft 0kts
10-Aug-18 12:01 32.732329 -117.195909 306 25ft 0kts
10-Aug-18 12:02 32.732329 -117.195909 306 25ft 0kts
10-Aug-18 12:03 32.732329 -117.195909 306 25ft 0kts
10-Aug-18 12:04 32.732329 -117.195909 306 25ft 0kts
10-Aug-18 12:05 32.732329 -117.195909 306 25ft 0kts
10-Aug-18 12:06 32.732329 -117.195909 306 25ft 0kts
10-Aug-18 12:07 32.732329 -117.195909 306 25ft 0kts
10-Aug-18 12:08 32.732329 -117.195909 306 25ft 0kts
10-Aug-18 12:09 32.732329 -117.195909 306 25ft 0kts
10-Aug-18 12:10 32.732329 -117.195909 306 25ft 0kts
10-Aug-18 12:11 32.732329 -117.195909 306 25ft 0kts
10-Aug-18 12:12 32.732329 -117.195909 306 25ft 0kts
10-Aug-18 12:13 32.732329 -117.195909 306 25ft 0kts
10-Aug-18 12:14 32.732185 -117.195570 298 25ft 2kts
10-Aug-18 12:15 32.731934 -117.194987 331 25ft 1kts
10-Aug-18 12:16 32.731786 -117.195004 16 25ft 0kts
10-Aug-18 12:17 32.731786 -117.195004 16 25ft 0kts
10-Aug-18 12:18 32.731907 -117.194962 16 25ft 2kts
10-Aug-18 12:19 32.732858 -117.194426 28 25ft 3kts
10-Aug-18 12:20 32.733030 -117.194318 28 25ft 2kts
10-Aug-18 12:21 32.733317 -117.192931 105 25ft 7kts
10-Aug-18 12:22 32.732386 -117.189083 106 25ft 16kts
10-Aug-18 12:23 32.731040 -117.183525 106 25ft 17kts
10-Aug-18 12:24 32.729770 -117.178282 106 25ft 15kts
10-Aug-18 12:25 32.729509 -117.176736 71 25ft 0kts
10-Aug-18 12:26 32.729548 -117.176603 71 25ft 1kts
10-Aug-18 12:27 32.730263 -117.176175 291 25ft 5kts
10-Aug-18 12:28 32.734742 -117.194678 285 36ft 156kts
10-Aug-18 12:29 32.753359 -117.243073 311 2168ft 195kts
10-Aug-18 12:30 32.791881 -117.304964 303 3944ft 269kts
10-Aug-18 12:31 32.837308 -117.377960 307 6906ft 285kts
10-Aug-18 12:32 32.886550 -117.454233 308 9716ft 297kts
10-Aug-18 12:33 32.940257 -117.537603 308 11705ft 334kts
10-Aug-18 12:34 32.997945 -117.627496 308 14181ft 350kts
10-Aug-18 12:35 33.057476 -117.720467 308 16700ft 362kts
10-Aug-18 12:36 33.128937 -117.797804 321 18955ft 371kts
10-Aug-18 12:37 33.207074 -117.878254 316 21184ft 379kts
10-Aug-18 12:38 33.281700 -117.966914 315 22842ft 386kts
10-Aug-18 12:39 33.357736 -118.057743 315 23804ft 390kts
10-Aug-18 12:40 33.434321 -118.149474 315 24641ft 394kts
10-Aug-18 12:41 33.511390 -118.242075 315 25574ft 393kts
10-Aug-18 12:42 33.588653 -118.335151 315 26577ft 400kts
10-Aug-18 12:43 33.667347 -118.430213 315 27579ft 403kts
10-Aug-18 12:44 33.746338 -118.525882 315 28575ft 404kts
10-Aug-18 12:45 33.825187 -118.621646 315 29563ft 404kts
10-Aug-18 12:46 33.900512 -118.713382 315 30508ft 401kts
10-Aug-18 12:47 33.978125 -118.808152 314 31485ft 397kts
10-Aug-18 12:48 34.055010 -118.902311 314 32464ft 392kts
10-Aug-18 12:49 34.128987 -118.993143 314 33420ft 385kts
10-Aug-18 12:50 34.189022 -119.097177 301 34414ft 376kts
10-Aug-18 12:51 34.234222 -119.185824 302 35231ft 368kts
10-Aug-18 12:52 34.295942 -119.306516 301 36062ft 366kts
10-Aug-18 12:53 34.350852 -119.413700 301 36068ft 383kts
10-Aug-18 12:54 34.398262 -119.506101 301 36058ft 395kts
10-Aug-18 12:55 34.484248 -119.623936 314 36056ft 409kts
10-Aug-18 12:56 34.549963 -119.704693 313 36058ft 417kts
10-Aug-18 12:57 34.632015 -119.805968 313 36057ft 427kts
10-Aug-18 12:58 34.729928 -119.927461 313 36047ft 437kts
10-Aug-18 12:59 34.800765 -120.015491 313 36047ft 442kts
10-Aug-18 13:00 34.886677 -120.122259 313 36063ft 442kts
10-Aug-18 13:01 34.972511 -120.228871 313 36063ft 442kts
10-Aug-18 13:02 35.058331 -120.335367 313 36064ft 443kts
10-Aug-18 13:03 35.144624 -120.436374 316 36062ft 444kts
10-Aug-18 13:04 35.235613 -120.538399 316 36044ft 444kts
10-Aug-18 13:05 35.326427 -120.640494 316 36043ft 445kts
10-Aug-18 13:06 35.415261 -120.740499 315 36046ft 445kts
10-Aug-18 13:07 35.508046 -120.841133 320 36041ft 448kts
10-Aug-18 13:08 35.606973 -120.933093 320 36037ft 448kts
10-Aug-18 13:09 35.706056 -121.025285 320 36040ft 448kts
10-Aug-18 13:10 35.805293 -121.117900 320 36037ft 449kts
10-Aug-18 13:11 35.904364 -121.210671 320 35517ft 447kts
10-Aug-18 13:12 36.003368 -121.303640 320 34536ft 451kts
10-Aug-18 13:13 36.104315 -121.394464 325 33554ft 453kts
10-Aug-18 13:14 36.204106 -121.471805 326 30692ft 452kts
10-Aug-18 13:15 36.306149 -121.551269 326 28148ft 420kts
10-Aug-18 13:16 36.404993 -121.628767 327 25608ft 418kts
10-Aug-18 13:17 36.498558 -121.702395 327 23221ft 395kts
10-Aug-18 13:18 36.590349 -121.774793 327 20850ft 393kts
10-Aug-18 13:19 36.681438 -121.846855 326 18538ft 385kts
10-Aug-18 13:20 36.774390 -121.905165 346 16203ft 374kts
10-Aug-18 13:21 36.872878 -121.932108 346 14092ft 360kts
10-Aug-18 13:22 36.967437 -121.959351 341 12073ft 334kts
10-Aug-18 13:23 37.049571 -121.991170 342 11075ft 289kts
10-Aug-18 13:24 37.121961 -122.019454 342 10260ft 276kts
10-Aug-18 13:25 37.195196 -122.048120 343 9193ft 278kts
10-Aug-18 13:26 37.267662 -122.076535 343 8074ft 271kts
10-Aug-18 13:27 37.338982 -122.104587 342 6711ft 268kts
10-Aug-18 13:28 37.410841 -122.131603 344 5058ft 268kts
10-Aug-18 13:29 37.475237 -122.153593 344 3891ft 205kts
10-Aug-18 13:30 37.515695 -122.183117 352 4028ft 162kts
10-Aug-18 13:31 37.551716 -122.218876 304 2832ft 170kts
10-Aug-18 13:32 37.572614 -122.266141 304 1627ft 133kts
10-Aug-18 13:33 37.590076 -122.306857 301 945ft 131kts
10-Aug-18 13:34 37.606953 -122.346994 298 260ft 128kts
10-Aug-18 13:35 37.619303 -122.376412 298 21ft 46kts
10-Aug-18 13:36 37.619645 -122.379324 230 21ft 3kts
10-Aug-18 13:37 37.618516 -122.379826 161 21ft 3kts
10-Aug-18 13:38 37.616460 -122.379742 205 21ft 12kts
10-Aug-18 13:39 37.612386 -122.382443 207 21ft 15kts
10-Aug-18 13:40 37.610983 -122.384792 354 21ft 8kts
10-Aug-18 13:41 37.612613 -122.384673 4 21ft 0kts
10-Aug-18 13:42 37.612636 -122.384670 4 21ft 0kts
10-Aug-18 13:43 37.612636 -122.384670 4 21ft 0kts
10-Aug-18 13:44 37.612636 -122.384670 4 21ft 0kts
10-Aug-18 13:45 37.612636 -122.384670 4 21ft 0kts
10-Aug-18 13:46 37.612636 -122.384670 4 21ft 0kts
10-Aug-18 13:47 37.612636 -122.384670 4 21ft 0kts
10-Aug-18 13:48 37.612636 -122.384670 4 21ft 0kts
10-Aug-18 13:49 37.612636 -122.384670 4 21ft 0kts
10-Aug-18 13:50 37.612636 -122.384670 4 21ft 0kts

Navigation Log

Ident Type
Flight plan parsing failed, navigation log unavailable